Wetterstation Vordersexau
Wetterdaten: November 2011
Datum Temp. A. Feuchte A. Luftdruck Regen Wind Richtung Taupunkt Windchill Windben
01.11.2011 10,9 C 76 % 1015,0 hPa 0,4 l/m 0,0 km/h NO 6,6 C 10,9 C 0,0 km/h
02.11.2011 12,5 C 75 % 1012,1 hPa 0,0 l/m 0,8 km/h SO 8,0 C 12,4 C 0,4 km/h
03.11.2011 9,6 C 80 % 1004,8 hPa 0,0 l/m 0,8 km/h NO 6,2 C 9,4 C 0,4 km/h
04.11.2011 10,5 C 82 % 1002,8 hPa 0,0 l/m 0,1 km/h W 7,6 C 10,5 C 0,1 km/h
05.11.2011 10,0 C 79 % 1003,9 hPa 0,0 l/m 0,4 km/h W-SW 6,4 C 10,0 C 0,2 km/h
06.11.2011 8,0 C 80 % 1008,1 hPa 0,0 l/m 0,3 km/h NO 4,7 C 8,0 C 0,2 km/h
07.11.2011 8,6 C 77 % 1012,9 hPa 0,4 l/m 0,0 km/h W-NW 4,7 C 8,6 C 0,0 km/h
08.11.2011 8,0 C 79 % 1015,3 hPa 0,4 l/m 0,3 km/h N-NW 4,6 C 8,0 C 0,2 km/h
09.11.2011 7,7 C 82 % 1019,2 hPa 0,0 l/m 0,1 km/h SO 4,8 C 7,7 C 0,0 km/h
10.11.2011 6,4 C 82 % 1019,7 hPa 0,0 l/m 0,5 km/h S-SO 3,6 C 6,4 C 0,3 km/h
11.11.2011 5,8 C 84 % 1020,7 hPa 0,0 l/m 0,6 km/h O-NO 3,2 C 5,7 C 0,3 km/h
12.11.2011 6,4 C 79 % 1027,6 hPa 0,0 l/m 0,0 km/h NO 2,9 C 6,4 C 0,0 km/h
13.11.2011 5,3 C 82 % 1029,1 hPa 0,4 l/m 0,0 km/h W-NW 2,6 C 5,3 C 0,0 km/h
14.11.2011 4,1 C 86 % 1024,1 hPa 0,0 l/m 2,2 km/h S-SO 1,9 C 3,5 C 1,3 km/h
15.11.2011 2,7 C 87 % 1018,9 hPa 0,0 l/m 0,7 km/h SO 0,7 C 2,7 C 0,4 km/h
16.11.2011 2,3 C 83 % 1019,2 hPa 0,0 l/m 0,5 km/h NW -0,3 C 2,3 C 0,3 km/h
17.11.2011 4,3 C 82 % 1022,1 hPa 0,0 l/m 0,0 km/h NO 1,3 C 4,3 C 0,0 km/h
18.11.2011 8,2 C 79 % 1021,4 hPa 0,0 l/m 0,0 km/h O-NO 4,7 C 8,2 C 0,0 km/h
19.11.2011 5,3 C 79 % 1019,1 hPa 0,0 l/m 0,1 km/h NO 1,7 C 5,3 C 0,1 km/h
20.11.2011 6,1 C 79 % 1018,8 hPa 0,0 l/m 0,0 km/h O-NO 2,6 C 6,1 C 0,0 km/h
21.11.2011 6,0 C 77 % 1016,0 hPa 0,0 l/m 0,0 km/h NO 2,0 C 6,0 C 0,0 km/h
22.11.2011 2,3 C 85 % 1017,2 hPa 0,4 l/m 0,5 km/h W-NW 0,0 C 2,3 C 0,3 km/h
23.11.2011 2,5 C 81 % 1024,5 hPa 0,0 l/m 0,5 km/h W-NW -0,4 C 2,4 C 0,3 km/h
24.11.2011 2,4 C 85 % 1030,3 hPa 0,0 l/m 0,2 km/h S 0,2 C 2,4 C 0,1 km/h
25.11.2011 2,5 C 84 % 1028,2 hPa 0,0 l/m 0,0 km/h SO -0,1 C 2,5 C 0,0 km/h
26.11.2011 4,8 C 82 % 1030,4 hPa 0,0 l/m 0,0 km/h S-SO 1,8 C 4,8 C 0,0 km/h
27.11.2011 3,9 C 82 % 1025,9 hPa 0,0 l/m 3,5 km/h SO 1,0 C 2,9 C 2,0 km/h
28.11.2011 4,4 C 83 % 1024,7 hPa 0,0 l/m 0,6 km/h O-NO 1,7 C 4,3 C 0,3 km/h
29.11.2011 4,4 C 81 % 1019,9 hPa 0,4 l/m 1,3 km/h N-NO 1,3 C 4,1 C 0,7 km/h
30.11.2011 8,8 C 82 % 1024,4 hPa 0,0 l/m 4,7 km/h NO 5,9 C 7,4 C 2,6 km/h
Min-Datum 17.11.11 21.11.11 03.11.11 6 Tage 01.11.11 - 17.11.11 14.11.11 01.11.11
Min-Zeit 07:30 15:30 23:30 - 00:30 - 07:30 08:30 00:30
Minimum -3,9 C 48 % 999,7 hPa - 0,0 km/h - -5,7 C -7,0 C 0,0 km/h
Max-Datum 01.11.11 16.11.11 26.11.11 01.11.11 14.11.11 - 01.11.11 01.11.11 14.11.11
Max-Zeit 15:30 07:30 09:30 01:30 08:30 - 14:30 15:30 08:30
Maximum 24,5 C 88 % 1032,4 hPa 0,4 l/m 22,7 km/h
S-SO
- 14,1 C 24,5 C 12,6 km/h
S-SO
Durchschnitt 6,2 C 81 % 1019,2 hPa #2,1 l/m 0,6 km/h SO 3,1 C 6,0 C 0,3 km/h

Durchschnitt Minimum Temp.2,4 C
Durchschnitt Maximum Temp.12,5 C
www.sexauwetter.de